Time;durP1;ratioP1;P1;durP2;ratioP2;P2;SDS_P1;SDS_P2;PMS_P1;PMS_P2;Temp;Humidity;BMP_temperature;BMP_pressure;BME280_temperature;BME280_humidity;BME280_pressure;Samples;Min_cycle;Max_cycle;Signal;HPM_P1;HPM_P2
2022/12/20 00:02:04;;;;;;;17.88;9.02;;;6.20;96.20;;;;;;4996410;28;20041;-69
2022/12/20 00:04:30;;;;;;;16.13;8.55;;;6.20;96.20;;;;;;4994147;28;20141;-69
2022/12/20 00:06:56;;;;;;;20.20;9.45;;;6.20;96.20;;;;;;4995811;28;20088;-69
2022/12/20 00:09:24;;;;;;;18.33;8.73;;;6.30;96.10;;;;;;4994587;28;20034;-68
2022/12/20 00:11:50;;;;;;;19.80;8.70;;;6.30;96.10;;;;;;4990880;28;20033;-69
2022/12/20 00:14:16;;;;;;;19.05;8.93;;;6.40;96.10;;;;;;4996497;28;20034;-69
2022/12/20 00:16:42;;;;;;;17.60;8.80;;;6.30;96.00;;;;;;4999171;28;20045;-69
2022/12/20 00:19:10;;;;;;;17.92;8.30;;;6.30;95.90;;;;;;5023754;28;20034;-69
2022/12/20 00:21:36;;;;;;;17.77;8.88;;;6.20;96.20;;;;;;4999676;28;20038;-68
2022/12/20 00:24:04;;;;;;;18.77;8.73;;;6.20;96.30;;;;;;4993105;28;20045;-69
2022/12/20 00:26:32;;;;;;;19.90;9.40;;;6.20;96.30;;;;;;4996788;28;20105;-69
2022/12/20 00:28:59;;;;;;;17.42;7.78;;;6.20;96.30;;;;;;4990650;28;20491;-69
2022/12/20 00:31:29;;;;;;;16.73;8.82;;;6.20;96.40;;;;;;5024865;28;20493;-69
2022/12/20 00:33:59;;;;;;;18.00;8.60;;;6.20;96.50;;;;;;4994580;28;20030;-69
2022/12/20 00:36:26;;;;;;;17.17;8.50;;;6.20;96.40;;;;;;4996793;28;20033;-69
2022/12/20 00:38:55;;;;;;;18.70;8.13;;;6.30;96.30;;;;;;4993552;28;20111;-68
2022/12/20 00:41:24;;;;;;;17.27;8.80;;;6.40;96.20;;;;;;4994225;28;20102;-68
2022/12/20 00:43:50;;;;;;;17.67;8.68;;;6.30;96.20;;;;;;4999154;28;20040;-68
2022/12/20 00:46:18;;;;;;;20.15;8.20;;;6.30;96.10;;;;;;4991066;28;20122;-68
2022/12/20 00:48:44;;;;;;;18.75;9.50;;;6.30;96.20;;;;;;4990167;28;20141;-69
2022/12/20 00:51:15;;;;;;;14.35;7.93;;;6.20;96.00;;;;;;4997279;28;20144;-66
2022/12/20 00:53:42;;;;;;;18.00;8.57;;;6.20;96.30;;;;;;4996247;28;20527;-66
2022/12/20 00:56:08;;;;;;;16.38;8.23;;;6.30;96.20;;;;;;4989043;28;20038;-67
2022/12/20 00:58:37;;;;;;;17.10;8.00;;;6.30;96.10;;;;;;4991501;28;20111;-66
2022/12/20 01:01:04;;;;;;;16.23;8.65;;;6.20;96.00;;;;;;4988490;28;20125;-67
2022/12/20 01:03:30;;;;;;;16.10;8.70;;;6.20;96.00;;;;;;4990311;28;20083;-67
2022/12/20 01:05:59;;;;;;;20.75;9.00;;;6.20;96.10;;;;;;4985666;28;20080;-67
2022/12/20 01:08:26;;;;;;;18.92;9.00;;;6.10;96.30;;;;;;4996412;28;20037;-67
2022/12/20 01:11:03;;;;;;;17.75;9.05;;;6.00;96.30;;;;;;4996099;28;20061;-67
2022/12/20 01:13:30;;;;;;;16.92;9.10;;;6.10;96.30;;;;;;4996742;28;20045;-66
2022/12/20 01:15:55;;;;;;;19.52;9.20;;;6.10;96.20;;;;;;4992821;28;20621;-67
2022/12/20 01:18:21;;;;;;;19.08;8.68;;;6.00;96.40;;;;;;4990391;28;20080;-66
2022/12/20 01:20:47;;;;;;;19.55;8.45;;;6.00;96.30;;;;;;4990267;28;20104;-66
2022/12/20 01:23:13;;;;;;;20.27;9.50;;;5.90;96.70;;;;;;4991471;28;20094;-68
2022/12/20 01:25:39;;;;;;;18.27;8.70;;;5.80;96.70;;;;;;4985081;28;20066;-67
2022/12/20 01:28:05;;;;;;;16.70;9.02;;;5.80;96.60;;;;;;4992142;28;20030;-68
2022/12/20 01:30:31;;;;;;;16.17;9.15;;;5.80;96.60;;;;;;4993796;28;20041;-67
2022/12/20 01:32:56;;;;;;;17.52;8.50;;;5.80;96.70;;;;;;4994325;28;20057;-66
2022/12/20 01:35:22;;;;;;;17.30;8.40;;;5.80;96.50;;;;;;4990335;28;20031;-67
2022/12/20 01:37:48;;;;;;;18.83;7.80;;;5.80;96.70;;;;;;5019094;28;20061;-67
2022/12/20 01:40:14;;;;;;;16.95;8.15;;;5.80;96.70;;;;;;4993280;28;20084;-66
2022/12/20 01:42:40;;;;;;;18.45;8.70;;;5.70;96.80;;;;;;4980762;28;20130;-68
2022/12/20 01:45:12;;;;;;;18.70;8.27;;;5.60;96.90;;;;;;4983103;28;20273;-67
2022/12/20 01:47:41;;;;;;;21.38;9.48;;;5.50;97.30;;;;;;4993407;28;20517;-67
2022/12/20 01:50:08;;;;;;;16.38;8.02;;;5.30;97.80;;;;;;4995455;28;20038;-67
2022/12/20 01:52:39;;;;;;;20.85;9.57;;;5.30;98.00;;;;;;5024111;28;20153;-66
2022/12/20 01:55:07;;;;;;;20.83;9.00;;;5.30;97.80;;;;;;4987881;28;20037;-66
2022/12/20 01:57:45;;;;;;;18.73;9.07;;;5.30;97.90;;;;;;4991246;28;20042;-66
2022/12/20 02:00:12;;;;;;;21.25;9.25;;;5.30;98.00;;;;;;5023201;28;20356;-67
2022/12/20 02:02:42;;;;;;;17.55;8.82;;;5.30;97.90;;;;;;4995059;28;20038;-66
2022/12/20 02:05:10;;;;;;;21.15;8.10;;;5.40;97.90;;;;;;5023820;28;20498;-67
2022/12/20 02:07:37;;;;;;;16.60;8.98;;;5.50;97.70;;;;;;4995349;28;20823;-67
2022/12/20 02:10:05;;;;;;;22.10;8.75;;;5.60;97.40;;;;;;4996076;28;20034;-66
2022/12/20 02:12:41;;;;;;;17.63;9.38;;;5.70;97.10;;;;;;4992795;28;20406;-66
2022/12/20 02:15:16;;;;;;;19.02;9.10;;;5.70;97.20;;;;;;4989484;28;20038;-66
2022/12/20 02:17:54;;;;;;;19.03;9.60;;;5.80;96.90;;;;;;4995461;28;20850;-65
2022/12/20 02:20:26;;;;;;;18.88;8.60;;;5.80;97.00;;;;;;5019475;28;20056;-66
2022/12/20 02:23:07;;;;;;;18.58;8.73;;;5.70;96.90;;;;;;4987398;28;20379;-67
2022/12/20 02:25:56;;;;;;;17.13;9.50;;;5.70;97.20;;;;;;4997237;28;20037;-67
2022/12/20 02:28:52;;;;;;;16.55;9.00;;;5.70;97.40;;;;;;4983435;28;20102;-66
2022/12/20 02:31:23;;;;;;;19.55;8.65;;;5.70;97.10;;;;;;4989264;28;20030;-65
2022/12/20 02:33:53;;;;;;;20.55;9.02;;;5.80;97.20;;;;;;4990385;28;20044;-66
2022/12/20 02:36:19;;;;;;;19.35;8.52;;;5.80;96.80;;;;;;4992396;28;20057;-65
2022/12/20 02:38:49;;;;;;;16.20;8.38;;;5.90;96.80;;;;;;4995578;28;20034;-66
2022/12/20 02:41:25;;;;;;;18.70;9.50;;;6.00;96.90;;;;;;5021921;28;20124;-66
2022/12/20 02:46:47;;;;;;;15.73;7.90;;;6.00;96.70;;;;;;5002379;28;20045;-67
2022/12/20 02:49:17;;;;;;;18.95;8.73;;;6.10;96.40;;;;;;4998047;28;20031;-67
2022/12/20 02:51:46;;;;;;;18.98;9.00;;;6.10;96.30;;;;;;4990206;28;20034;-67
2022/12/20 02:54:13;;;;;;;19.23;9.32;;;6.00;96.40;;;;;;4993415;28;20468;-66
2022/12/20 02:56:49;;;;;;;16.25;8.40;;;6.10;96.50;;;;;;4996289;28;20037;-67
2022/12/20 02:59:29;;;;;;;;;;;6.10;96.40;;;;;;4996763;28;20578;-66
2022/12/20 03:01:55;;;;;;;19.15;8.45;;;6.20;96.50;;;;;;4993290;28;19936;-66
2022/12/20 03:04:25;;;;;;;19.75;9.43;;;6.20;96.10;;;;;;4997432;28;20027;-66
2022/12/20 03:06:56;;;;;;;18.20;8.80;;;6.20;96.30;;;;;;5026482;28;20037;-67
2022/12/20 03:09:22;;;;;;;15.95;8.27;;;6.30;96.10;;;;;;4997869;28;20044;-67
2022/12/20 03:11:47;;;;;;;17.80;8.82;;;6.30;96.10;;;;;;4998628;28;20065;-66
2022/12/20 03:14:13;;;;;;;17.05;8.57;;;6.20;96.30;;;;;;4994024;28;20379;-67
2022/12/20 03:16:40;;;;;;;17.23;8.05;;;6.30;96.30;;;;;;4991424;28;20038;-66
2022/12/20 03:19:06;;;;;;;18.88;9.02;;;6.40;96.10;;;;;;4995964;28;20069;-66
2022/12/20 03:21:31;;;;;;;19.40;8.38;;;6.40;95.80;;;;;;4996500;28;20026;-66
2022/12/20 03:23:57;;;;;;;16.13;8.15;;;6.30;95.80;;;;;;4996907;28;20041;-66
2022/12/20 03:26:24;;;;;;;16.70;8.80;;;6.30;95.70;;;;;;5022503;28;20034;-67
2022/12/20 03:28:55;;;;;;;19.10;8.50;;;6.40;95.70;;;;;;4993764;28;20117;-66
2022/12/20 03:31:24;;;;;;;17.85;8.90;;;6.40;95.50;;;;;;4992845;28;20042;-66
2022/12/20 03:33:53;;;;;;;18.17;8.85;;;6.30;95.80;;;;;;4993870;28;20450;-66
2022/12/20 03:36:22;;;;;;;16.83;9.18;;;6.30;95.80;;;;;;5024793;28;20033;-67
2022/12/20 03:38:51;;;;;;;17.80;8.60;;;6.30;96.10;;;;;;5021861;28;20412;-66
2022/12/20 03:41:17;;;;;;;14.70;8.02;;;6.30;96.00;;;;;;4995016;28;20450;-66
2022/12/20 03:43:43;;;;;;;15.23;8.07;;;6.30;96.00;;;;;;5000517;28;20512;-67
2022/12/20 03:46:09;;;;;;;16.17;9.27;;;6.40;95.80;;;;;;4996262;28;20027;-66
2022/12/20 03:48:36;;;;;;;16.83;8.75;;;6.40;95.60;;;;;;4994316;28;20053;-66
2022/12/20 03:51:03;;;;;;;14.63;8.85;;;6.30;95.80;;;;;;5023856;28;20033;-66
2022/12/20 03:53:29;;;;;;;18.17;8.77;;;6.20;95.80;;;;;;4995166;28;20034;-67
2022/12/20 03:55:55;;;;;;;17.20;8.35;;;6.20;95.90;;;;;;4986225;28;20184;-66
2022/12/20 03:58:22;;;;;;;17.75;8.50;;;6.10;96.10;;;;;;4990461;28;20030;-67
2022/12/20 04:00:48;;;;;;;21.52;9.13;;;6.10;96.20;;;;;;5025072;28;20073;-67
2022/12/20 04:03:43;;;;;;;23.63;10.48;;;6.20;96.10;;;;;;4983973;28;20034;-66
2022/12/20 04:06:08;;;;;;;16.85;8.63;;;6.20;96.20;;;;;;4990780;28;20556;-67
2022/12/20 04:08:34;;;;;;;19.70;8.93;;;6.00;96.30;;;;;;4989990;28;20068;-67
2022/12/20 04:11:15;;;;;;;18.45;9.13;;;6.00;96.30;;;;;;4996163;28;20106;-68
2022/12/20 04:13:49;;;;;;;19.10;8.80;;;6.00;96.60;;;;;;4997987;28;20466;-67
2022/12/20 04:16:17;;;;;;;18.98;9.88;;;6.00;96.50;;;;;;5004480;28;20060;-66
2022/12/20 04:18:43;;;;;;;19.20;8.98;;;6.00;96.50;;;;;;4997386;28;20484;-67
2022/12/20 04:21:11;;;;;;;21.88;9.10;;;5.90;96.60;;;;;;4992286;28;20234;-67
2022/12/20 04:23:42;;;;;;;17.48;9.20;;;5.90;96.70;;;;;;4992074;28;20132;-67
2022/12/20 04:26:09;;;;;;;15.65;8.52;;;6.00;96.60;;;;;;4990047;28;20398;-67
2022/12/20 04:28:35;;;;;;;17.17;9.23;;;6.00;96.30;;;;;;4999062;28;20430;-66
2022/12/20 04:31:01;;;;;;;18.20;9.55;;;6.10;96.40;;;;;;4953709;28;1153629;-66
2022/12/20 04:33:30;;;;;;;20.27;8.90;;;6.00;96.40;;;;;;4988239;28;20594;-67
2022/12/20 04:35:55;;;;;;;19.10;9.40;;;6.10;96.40;;;;;;4994147;28;20059;-67
2022/12/20 04:38:23;;;;;;;19.27;8.93;;;6.20;96.20;;;;;;4996514;28;20034;-67
2022/12/20 04:40:54;;;;;;;18.17;8.57;;;6.20;96.10;;;;;;4994916;28;20040;-67
2022/12/20 04:43:22;;;;;;;19.02;8.20;;;6.20;95.90;;;;;;5024879;28;20069;-67
2022/12/20 04:45:51;;;;;;;16.52;8.13;;;6.20;95.80;;;;;;4991609;28;20038;-66
2022/12/20 04:48:19;;;;;;;16.88;8.05;;;6.20;95.60;;;;;;4990587;28;20126;-66
2022/12/20 04:50:49;;;;;;;19.00;8.95;;;6.30;96.00;;;;;;4993161;28;20025;-67
2022/12/20 04:55:59;;;;;;;19.80;8.32;;;6.30;95.80;;;;;;4993137;28;20064;-67
2022/12/20 04:58:25;;;;;;;13.95;7.40;;;6.30;95.80;;;;;;4995628;28;20089;-67
2022/12/20 05:00:51;;;;;;;16.42;8.27;;;6.20;95.70;;;;;;5023501;28;20049;-66
2022/12/20 05:03:25;;;;;;;19.05;8.63;;;6.30;95.80;;;;;;4993031;28;20031;-67
2022/12/20 05:05:51;;;;;;;14.85;8.07;;;6.30;95.90;;;;;;4988300;28;20042;-66
2022/12/20 05:08:17;;;;;;;19.13;8.95;;;6.30;95.90;;;;;;4992767;28;20113;-67
2022/12/20 05:10:44;;;;;;;17.27;8.38;;;6.40;95.70;;;;;;5018264;28;20030;-66
2022/12/20 05:13:10;;;;;;;15.65;8.10;;;6.30;95.80;;;;;;4993421;28;20036;-66
2022/12/20 05:15:42;;;;;;;16.50;8.18;;;6.30;95.90;;;;;;5024380;28;20026;-66
2022/12/20 05:18:09;;;;;;;15.50;8.48;;;6.20;96.00;;;;;;4993179;28;20026;-68
2022/12/20 05:20:47;;;;;;;15.52;8.43;;;6.30;96.00;;;;;;4997339;28;20064;-67
2022/12/20 05:26:18;;;;;;;;;;;6.40;95.60;;;;;;4996197;28;20026;-67
2022/12/20 05:28:45;;;;;;;15.13;8.43;;;6.50;95.70;;;;;;4992552;28;19913;-65
2022/12/20 05:31:11;;;;;;;15.90;8.15;;;6.50;95.40;;;;;;4983786;28;20046;-66
2022/12/20 05:33:37;;;;;;;14.82;8.40;;;6.50;95.70;;;;;;4992344;28;20839;-67
2022/12/20 05:36:04;;;;;;;13.75;7.65;;;6.50;95.60;;;;;;4993997;28;20518;-66
2022/12/20 05:38:30;;;;;;;14.85;8.23;;;6.60;95.50;;;;;;4997939;28;20034;-67
2022/12/20 05:40:56;;;;;;;19.33;7.82;;;6.70;95.40;;;;;;4988631;28;20844;-65
2022/12/20 05:43:22;;;;;;;17.70;7.90;;;6.70;95.10;;;;;;4993498;28;20126;-65
2022/12/20 05:45:50;;;;;;;17.77;8.20;;;6.90;95.00;;;;;;4991701;28;20054;-67
2022/12/20 05:48:20;;;;;;;16.73;8.07;;;6.90;94.90;;;;;;4991740;28;20061;-65
2022/12/20 05:50:47;;;;;;;15.80;8.15;;;6.70;95.00;;;;;;4982823;28;20117;-66
2022/12/20 05:53:25;;;;;;;16.98;8.50;;;6.80;95.40;;;;;;4996248;28;20029;-64
2022/12/20 05:55:54;;;;;;;17.08;8.73;;;6.80;95.10;;;;;;5023182;28;20049;-67
2022/12/20 05:58:24;;;;;;;17.42;8.30;;;6.80;95.40;;;;;;5024599;28;20034;-66
2022/12/20 06:01:03;;;;;;;15.80;7.57;;;6.80;95.50;;;;;;4989144;28;20030;-66
2022/12/20 06:03:33;;;;;;;15.10;8.10;;;6.80;95.60;;;;;;5025240;28;20402;-66
2022/12/20 06:06:02;;;;;;;17.35;7.90;;;6.80;95.20;;;;;;4993672;28;20034;-67
2022/12/20 06:08:30;;;;;;;15.80;7.72;;;6.80;95.40;;;;;;4986694;28;20026;-66
2022/12/20 06:10:58;;;;;;;14.35;8.38;;;6.80;95.30;;;;;;5024722;28;20054;-67
2022/12/20 06:13:24;;;;;;;16.42;8.35;;;6.80;95.60;;;;;;4999401;28;20045;-67
2022/12/20 06:15:52;;;;;;;18.38;8.73;;;6.70;95.60;;;;;;4992401;28;20030;-66
2022/12/20 06:18:20;;;;;;;19.80;8.75;;;6.70;95.90;;;;;;4996776;28;20037;-67
2022/12/20 06:20:52;;;;;;;16.10;8.45;;;6.70;95.90;;;;;;4991067;28;20037;-67
2022/12/20 06:23:22;;;;;;;18.63;9.10;;;6.70;95.70;;;;;;5018140;28;20034;-68
2022/12/20 06:26:03;;;;;;;16.45;8.35;;;6.70;95.80;;;;;;5018591;28;20538;-67
2022/12/20 06:28:33;;;;;;;18.73;9.27;;;6.70;95.90;;;;;;4989467;28;20050;-67
2022/12/20 06:30:59;;;;;;;17.30;8.77;;;6.70;96.00;;;;;;4988081;28;20035;-66
2022/12/20 06:33:43;;;;;;;16.98;8.32;;;6.70;96.20;;;;;;4987076;28;20041;-67
2022/12/20 06:36:11;;;;;;;19.08;8.10;;;6.70;96.30;;;;;;4988107;28;20041;-66
2022/12/20 06:38:36;;;;;;;14.27;7.93;;;6.70;96.30;;;;;;4986267;28;20669;-67
2022/12/20 06:41:02;;;;;;;17.25;8.10;;;6.80;96.10;;;;;;4983091;28;20151;-67
2022/12/20 06:43:28;;;;;;;19.25;8.23;;;6.80;96.10;;;;;;4987023;28;20384;-66
2022/12/20 06:45:54;;;;;;;14.93;8.07;;;6.80;96.20;;;;;;4985724;28;20085;-66
2022/12/20 06:48:20;;;;;;;16.77;8.85;;;6.90;96.20;;;;;;4981287;28;20034;-66
2022/12/20 06:50:48;;;;;;;14.35;8.32;;;6.90;95.90;;;;;;4989151;28;20129;-66
2022/12/20 06:53:15;;;;;;;18.17;8.50;;;6.90;95.80;;;;;;4988205;28;20108;-66
2022/12/20 06:55:42;;;;;;;20.55;9.65;;;6.90;96.00;;;;;;4988208;28;20077;-66
2022/12/20 06:58:07;;;;;;;15.48;7.80;;;7.00;95.90;;;;;;4986300;28;20149;-66
2022/12/20 07:00:36;;;;;;;20.67;9.32;;;7.00;95.90;;;;;;5015112;28;20050;-67
2022/12/20 07:03:02;;;;;;;15.93;8.65;;;6.90;96.00;;;;;;4988327;28;20031;-66
2022/12/20 07:05:27;;;;;;;17.10;8.70;;;6.90;96.40;;;;;;4989824;28;20029;-66
2022/12/20 07:07:53;;;;;;;15.93;8.60;;;6.90;96.60;;;;;;4989305;28;20240;-67
2022/12/20 07:10:19;;;;;;;17.35;8.88;;;6.90;96.70;;;;;;4993493;28;20035;-66
2022/12/20 07:12:45;;;;;;;15.52;7.82;;;6.90;96.80;;;;;;4990045;28;20437;-68
2022/12/20 07:15:10;;;;;;;17.17;9.10;;;7.00;96.50;;;;;;4963174;28;20120;-67
2022/12/20 07:17:36;;;;;;;24.10;12.02;;;7.00;96.70;;;;;;4989047;28;20058;-66
2022/12/20 07:20:02;;;;;;;18.27;8.57;;;6.90;97.00;;;;;;4990214;28;20196;-66
2022/12/20 07:22:28;;;;;;;18.15;7.80;;;6.90;97.00;;;;;;4989303;28;20034;-67
2022/12/20 07:24:54;;;;;;;19.02;8.98;;;6.90;97.00;;;;;;4990805;28;20041;-67
2022/12/20 07:27:19;;;;;;;16.00;8.57;;;7.00;97.00;;;;;;4992099;28;20041;-67
2022/12/20 07:29:45;;;;;;;15.90;8.02;;;7.10;96.90;;;;;;4997335;28;20065;-66
2022/12/20 07:32:13;;;;;;;16.63;7.78;;;7.00;96.80;;;;;;4994757;28;20042;-67
2022/12/20 07:34:38;;;;;;;16.27;8.15;;;7.00;96.90;;;;;;4995219;28;20037;-67
2022/12/20 07:37:04;;;;;;;22.23;8.75;;;7.00;97.00;;;;;;4992920;28;20044;-68
2022/12/20 07:39:30;;;;;;;16.13;8.15;;;7.10;97.00;;;;;;4996873;28;20045;-67
2022/12/20 07:41:56;;;;;;;16.20;8.68;;;7.20;97.00;;;;;;4995237;28;20030;-68
2022/12/20 07:44:22;;;;;;;13.82;7.95;;;7.20;97.10;;;;;;4989481;28;20058;-67
2022/12/20 07:46:48;;;;;;;18.50;8.68;;;7.30;97.10;;;;;;4993439;28;20037;-73
2022/12/20 07:49:14;;;;;;;15.98;8.90;;;7.30;97.00;;;;;;4990554;28;20034;-67
2022/12/20 07:51:49;;;;;;;14.88;7.43;;;7.30;97.00;;;;;;4992536;28;20534;-67
2022/12/20 07:54:22;;;;;;;18.30;7.82;;;7.30;97.10;;;;;;4995394;28;20588;-69
2022/12/20 07:56:53;;;;;;;19.52;8.38;;;7.40;97.10;;;;;;4995037;28;20117;-68
2022/12/20 07:59:24;;;;;;;14.52;8.45;;;7.40;97.20;;;;;;4997528;28;20535;-69
2022/12/20 08:01:50;;;;;;;18.52;8.77;;;7.50;97.30;;;;;;4989857;28;20054;-68
2022/12/20 08:04:20;;;;;;;22.50;10.73;;;7.50;97.10;;;;;;4994116;28;20038;-67
2022/12/20 08:06:46;;;;;;;17.08;11.88;;;7.50;97.10;;;;;;4997011;28;20046;-68
2022/12/20 08:09:14;;;;;;;17.52;8.65;;;7.50;97.10;;;;;;4993301;28;20460;-68
2022/12/20 08:11:43;;;;;;;17.60;9.07;;;7.50;97.20;;;;;;4999084;28;20044;-68
2022/12/20 08:14:09;;;;;;;19.10;9.13;;;7.50;97.30;;;;;;5000012;28;20382;-67
2022/12/20 08:16:35;;;;;;;16.30;8.32;;;7.50;97.30;;;;;;4997812;28;20039;-67
2022/12/20 08:19:01;;;;;;;13.00;7.65;;;7.50;97.40;;;;;;4996297;28;20788;-67
2022/12/20 08:21:27;;;;;;;17.38;8.00;;;7.60;97.40;;;;;;4991390;28;20149;-67
2022/12/20 08:23:53;;;;;;;15.70;8.90;;;7.60;97.50;;;;;;4998416;28;20793;-67
2022/12/20 08:26:19;;;;;;;19.33;8.75;;;7.70;97.40;;;;;;4995448;28;20034;-67
2022/12/20 08:28:45;;;;;;;20.30;8.38;;;7.70;97.20;;;;;;5000786;28;20141;-67
2022/12/20 08:31:11;;;;;;;18.80;9.55;;;7.70;97.40;;;;;;4998636;28;20042;-66
2022/12/20 08:33:39;;;;;;;17.48;9.23;;;7.70;97.40;;;;;;4992424;28;20041;-67
2022/12/20 08:36:08;;;;;;;19.48;9.57;;;7.80;97.50;;;;;;4990794;28;20042;-69
2022/12/20 08:38:34;;;;;;;17.17;9.00;;;7.70;97.50;;;;;;4991557;28;20034;-66
2022/12/20 08:41:04;;;;;;;15.45;8.55;;;7.70;97.60;;;;;;4985922;28;20117;-67
2022/12/20 08:43:31;;;;;;;23.98;11.73;;;7.70;97.70;;;;;;4993227;28;20038;-66
2022/12/20 08:45:57;;;;;;;18.58;9.18;;;7.70;97.60;;;;;;4992333;28;20036;-66
2022/12/20 08:48:23;;;;;;;20.20;9.07;;;7.80;97.80;;;;;;4996322;28;20054;-66
2022/12/20 08:51:01;;;;;;;19.08;9.32;;;7.80;97.70;;;;;;4994007;28;20061;-67
2022/12/20 08:53:28;;;;;;;17.38;8.90;;;7.90;97.50;;;;;;4991369;28;20045;-66
2022/12/20 08:56:01;;;;;;;18.88;9.82;;;7.80;97.40;;;;;;4993775;28;20045;-67
2022/12/20 08:58:27;;;;;;;15.30;9.02;;;7.90;97.60;;;;;;4993677;28;20033;-66
2022/12/20 09:00:53;;;;;;;15.05;8.65;;;7.80;97.40;;;;;;4997657;28;20486;-67
2022/12/20 09:03:19;;;;;;;18.00;8.82;;;7.90;97.60;;;;;;4990520;28;20030;-71
2022/12/20 09:05:46;;;;;;;17.23;9.00;;;8.00;97.40;;;;;;4993542;28;20108;-71
2022/12/20 09:08:15;;;;;;;15.60;8.80;;;8.10;97.40;;;;;;4987722;28;20042;-73
2022/12/20 09:10:42;;;;;;;13.93;8.07;;;8.10;97.40;;;;;;4990277;28;20045;-72
2022/12/20 09:13:08;;;;;;;17.60;8.18;;;8.20;97.30;;;;;;4992627;28;20034;-72
2022/12/20 09:15:35;;;;;;;16.63;7.85;;;8.30;97.10;;;;;;4989829;28;20049;-72
2022/12/20 09:18:01;;;;;;;15.52;8.68;;;8.40;97.10;;;;;;4985397;28;20049;-73
2022/12/20 09:20:28;;;;;;;17.70;8.48;;;8.40;97.00;;;;;;4986435;28;20034;-72
2022/12/20 09:22:54;;;;;;;15.35;8.07;;;8.40;97.00;;;;;;5021789;28;20043;-67
2022/12/20 09:25:20;;;;;;;15.30;7.78;;;8.50;96.90;;;;;;4987060;28;20038;-68
2022/12/20 09:27:46;;;;;;;19.45;8.85;;;8.70;96.60;;;;;;4997766;28;20513;-68
2022/12/20 09:30:12;;;;;;;14.13;7.88;;;8.70;96.50;;;;;;4990813;28;20045;-69
2022/12/20 09:32:38;;;;;;;18.58;8.02;;;8.80;96.50;;;;;;4995537;28;20089;-68
2022/12/20 09:35:04;;;;;;;15.13;8.00;;;8.80;96.30;;;;;;4989955;28;20042;-69
2022/12/20 09:37:31;;;;;;;16.83;8.48;;;8.80;96.30;;;;;;4989474;28;20045;-67
2022/12/20 09:39:58;;;;;;;16.10;8.60;;;8.80;96.50;;;;;;4989613;28;20045;-67
2022/12/20 09:42:26;;;;;;;13.63;8.20;;;8.90;96.10;;;;;;4987979;28;20045;-66
2022/12/20 09:44:55;;;;;;;15.65;8.82;;;8.80;96.00;;;;;;4992398;28;20036;-66
2022/12/20 09:47:24;;;;;;;17.92;8.50;;;8.60;96.20;;;;;;4987876;28;20121;-67
2022/12/20 09:49:54;;;;;;;15.80;8.93;;;8.40;96.80;;;;;;4987847;28;20128;-67
2022/12/20 09:52:50;;;;;;;15.38;7.80;;;8.40;97.00;;;;;;4987475;28;20089;-67
2022/12/20 09:55:16;;;;;;;13.20;7.25;;;8.30;96.90;;;;;;4995662;28;20053;-67
2022/12/20 09:58:02;;;;;;;17.90;8.90;;;8.30;96.80;;;;;;4991720;28;20042;-67
2022/12/20 10:00:29;;;;;;;13.48;8.15;;;8.30;96.80;;;;;;4986914;28;20034;-67
2022/12/20 10:02:55;;;;;;;15.43;9.10;;;8.20;97.00;;;;;;4989925;28;20034;-67
2022/12/20 10:05:50;;;;;;;15.00;8.73;;;8.20;97.10;;;;;;4990694;28;20034;-67
2022/12/20 10:08:35;;;;;;;15.07;7.93;;;8.20;97.20;;;;;;4990999;28;20030;-67
2022/12/20 10:11:04;;;;;;;16.02;8.07;;;8.00;97.50;;;;;;4988805;28;20145;-67
2022/12/20 10:13:55;;;;;;;17.10;8.38;;;8.00;97.70;;;;;;4986578;28;20074;-67
2022/12/20 10:16:33;;;;;;;14.20;7.93;;;8.20;97.30;;;;;;4990183;28;20096;-67
2022/12/20 10:19:24;;;;;;;17.17;8.65;;;8.40;97.10;;;;;;4987586;28;20038;-67
2022/12/20 10:21:50;;;;;;;17.90;8.45;;;8.50;96.80;;;;;;5017439;28;20521;-66
2022/12/20 10:24:19;;;;;;;11.70;7.03;;;8.60;96.60;;;;;;4990275;28;20023;-66
2022/12/20 10:26:49;;;;;;;16.02;8.15;;;8.70;96.40;;;;;;4986122;28;20662;-66
2022/12/20 10:29:15;;;;;;;17.75;8.35;;;8.80;96.70;;;;;;4985263;28;20033;-66
2022/12/20 10:31:41;;;;;;;13.85;7.10;;;8.90;96.60;;;;;;4987443;28;20034;-67
2022/12/20 10:34:07;;;;;;;14.55;6.93;;;9.00;96.30;;;;;;4989371;28;20479;-66
2022/12/20 10:36:35;;;;;;;11.63;6.53;;;9.10;95.90;;;;;;4990864;28;20059;-67
2022/12/20 10:39:04;;;;;;;14.65;7.55;;;9.10;95.70;;;;;;4991075;28;20219;-67
2022/12/20 10:41:53;;;;;;;12.60;7.43;;;9.20;95.60;;;;;;4992025;28;20148;-67
2022/12/20 10:44:29;;;;;;;13.15;7.72;;;9.20;95.70;;;;;;4989224;28;20050;-68
2022/12/20 10:46:58;;;;;;;13.10;7.00;;;9.40;95.10;;;;;;4991155;28;20941;-66
2022/12/20 10:49:35;;;;;;;14.63;7.55;;;9.40;95.00;;;;;;4986852;28;20406;-66
2022/12/20 10:52:09;;;;;;;12.52;7.22;;;9.30;94.90;;;;;;4987390;28;20498;-66
2022/12/20 10:54:37;;;;;;;12.27;6.72;;;9.10;95.40;;;;;;4991475;28;20136;-66
2022/12/20 10:57:27;;;;;;;15.73;7.15;;;9.00;95.30;;;;;;4989070;28;20054;-66
2022/12/20 11:00:01;;;;;;;13.60;7.20;;;8.90;95.90;;;;;;4991714;28;20054;-67
2022/12/20 11:02:28;;;;;;;13.70;6.85;;;8.90;95.80;;;;;;4995438;28;20034;-66
2022/12/20 11:05:02;;;;;;;12.82;6.28;;;8.90;95.80;;;;;;4999089;28;20031;-66
2022/12/20 11:07:30;;;;;;;12.48;6.82;;;8.90;95.60;;;;;;4992546;28;20041;-67
2022/12/20 11:09:59;;;;;;;14.48;7.07;;;9.00;95.90;;;;;;4988629;28;20049;-66
2022/12/20 11:12:25;;;;;;;11.63;6.75;;;9.00;96.00;;;;;;4996944;28;20448;-66
2022/12/20 11:15:07;;;;;;;12.02;6.25;;;9.00;95.90;;;;;;5000069;28;20038;-66
2022/12/20 11:17:39;;;;;;;12.30;6.18;;;9.00;95.80;;;;;;4991752;28;20038;-66
2022/12/20 11:20:32;;;;;;;13.10;6.55;;;9.10;95.80;;;;;;4995926;28;20073;-66
2022/12/20 11:23:06;;;;;;;13.82;6.43;;;9.10;95.60;;;;;;4994398;28;20042;-67
2022/12/20 11:25:58;;;;;;;11.88;6.30;;;9.10;95.70;;;;;;4991764;28;20030;-66
2022/12/20 11:28:58;;;;;;;10.18;6.10;;;9.20;95.90;;;;;;4990452;28;20038;-66
2022/12/20 11:31:34;;;;;;;11.50;6.50;;;9.30;95.60;;;;;;4991816;28;20052;-67
2022/12/20 11:34:29;;;;;;;10.98;5.63;;;9.60;95.30;;;;;;4991601;28;20046;-67
2022/12/20 11:37:01;;;;;;;14.57;6.90;;;9.60;94.90;;;;;;4996687;28;20150;-67
2022/12/20 11:39:35;;;;;;;12.35;6.53;;;9.60;94.50;;;;;;4987864;28;20117;-66
2022/12/20 11:42:05;;;;;;;16.58;6.88;;;9.20;95.10;;;;;;4994479;28;20046;-66
2022/12/20 11:45:03;;;;;;;10.50;6.10;;;9.00;95.60;;;;;;4992397;28;20042;-66
2022/12/20 11:47:46;;;;;;;10.93;6.30;;;8.90;95.90;;;;;;4988463;28;20030;-67
2022/12/20 11:50:18;;;;;;;11.13;6.35;;;8.90;96.00;;;;;;4984341;28;20038;-67
2022/12/20 11:52:53;;;;;;;11.45;6.55;;;9.00;95.80;;;;;;4994426;28;20038;-67
2022/12/20 11:55:26;;;;;;;10.70;6.70;;;9.00;96.00;;;;;;4992864;28;20121;-67
2022/12/20 11:57:55;;;;;;;13.75;7.07;;;9.10;95.90;;;;;;4992799;28;20088;-67
2022/12/20 12:00:22;;;;;;;11.88;6.15;;;9.20;95.90;;;;;;4990418;28;20389;-67
2022/12/20 12:02:55;;;;;;;14.07;6.07;;;9.20;95.70;;;;;;4986857;28;20042;-67
2022/12/20 12:05:41;;;;;;;11.50;6.05;;;9.20;95.70;;;;;;4991885;28;20030;-67
2022/12/20 12:08:15;;;;;;;13.45;6.60;;;9.20;95.60;;;;;;4994924;28;20129;-67
2022/12/20 12:10:44;;;;;;;11.88;6.30;;;9.20;95.70;;;;;;4991771;28;20037;-67
2022/12/20 12:13:17;;;;;;;12.38;6.15;;;9.20;95.80;;;;;;4990969;28;20133;-67
2022/12/20 12:16:09;;;;;;;13.75;6.35;;;9.20;95.90;;;;;;4993077;28;20041;-67
2022/12/20 12:18:37;;;;;;;10.70;5.57;;;9.10;95.80;;;;;;4989577;28;20065;-67
2022/12/20 12:21:25;;;;;;;11.63;6.03;;;9.20;96.00;;;;;;4992673;28;20038;-67
2022/12/20 12:24:07;;;;;;;11.25;5.72;;;9.20;95.90;;;;;;4994821;28;20932;-67
2022/12/20 12:26:39;;;;;;;11.43;5.82;;;9.20;95.80;;;;;;4995438;28;20034;-65
2022/12/20 12:29:08;;;;;;;11.05;6.25;;;9.20;96.10;;;;;;4994862;28;20124;-65
2022/12/20 12:31:40;;;;;;;10.55;6.25;;;9.20;96.10;;;;;;4996249;28;20044;-66
2022/12/20 12:34:26;;;;;;;11.40;6.28;;;9.20;96.00;;;;;;4991677;28;20045;-65
2022/12/20 12:37:24;;;;;;;9.60;5.43;;;9.30;96.10;;;;;;5001156;28;20086;-66
2022/12/20 12:40:30;;;;;;;10.45;5.68;;;9.30;95.80;;;;;;4974536;28;20088;-65
2022/12/20 12:43:21;;;;;;;10.05;5.82;;;9.30;96.40;;;;;;4989113;28;20038;-66
2022/12/20 12:45:59;;;;;;;11.93;5.47;;;9.50;96.00;;;;;;4989887;28;20029;-66
2022/12/20 12:48:30;;;;;;;12.23;5.50;;;9.60;95.60;;;;;;4993320;28;20041;-66
2022/12/20 12:50:57;;;;;;;8.55;4.97;;;9.70;95.30;;;;;;4993799;28;20045;-65
2022/12/20 12:53:35;;;;;;;12.77;5.55;;;9.70;95.20;;;;;;4987644;28;20104;-65
2022/12/20 12:56:46;;;;;;;10.07;5.78;;;9.80;95.20;;;;;;4987944;28;20924;-65
2022/12/20 12:59:18;;;;;;;9.15;5.63;;;9.70;95.10;;;;;;4959005;28;20426;-65
2022/12/20 13:02:14;;;;;;;13.98;6.05;;;9.60;95.30;;;;;;4959584;28;20062;-65
2022/12/20 13:05:00;;;;;;;10.03;5.90;;;9.50;95.30;;;;;;4977549;28;20138;-65
2022/12/20 13:07:32;;;;;;;8.50;5.50;;;9.50;95.60;;;;;;4995437;28;20174;-65
2022/12/20 13:09:59;;;;;;;12.82;6.00;;;9.50;95.70;;;;;;4995315;28;20284;-65
2022/12/20 13:12:47;;;;;;;10.38;6.20;;;9.40;95.60;;;;;;4989542;28;20498;-65
2022/12/20 13:15:18;;;;;;;11.52;6.22;;;9.50;95.50;;;;;;4988343;28;20149;-65